sensor_id;sensor_type;location;lat;lon;timestamp;P1;durP1;ratioP1;P2;durP2;ratioP2
80536;SDS011;69867;47.074;15.404;2024-02-21T00:00:39;6.38;;;2.50;;
80536;SDS011;69867;47.074;15.404;2024-02-21T00:03:04;7.65;;;2.35;;
80536;SDS011;69867;47.074;15.404;2024-02-21T00:05:30;10.20;;;2.90;;
80536;SDS011;69867;47.074;15.404;2024-02-21T00:07:55;5.95;;;2.95;;
80536;SDS011;69867;47.074;15.404;2024-02-21T00:10:22;5.43;;;2.50;;
80536;SDS011;69867;47.074;15.404;2024-02-21T00:12:47;5.20;;;2.63;;
80536;SDS011;69867;47.074;15.404;2024-02-21T00:15:13;6.78;;;3.00;;
80536;SDS011;69867;47.074;15.404;2024-02-21T00:17:38;7.28;;;2.97;;
80536;SDS011;69867;47.074;15.404;2024-02-21T00:20:04;7.05;;;3.00;;
80536;SDS011;69867;47.074;15.404;2024-02-21T00:22:29;7.95;;;2.80;;
80536;SDS011;69867;47.074;15.404;2024-02-21T00:24:54;5.20;;;2.42;;
80536;SDS011;69867;47.074;15.404;2024-02-21T00:27:20;6.93;;;2.40;;
80536;SDS011;69867;47.074;15.404;2024-02-21T00:29:45;10.18;;;3.30;;
80536;SDS011;69867;47.074;15.404;2024-02-21T00:32:10;7.40;;;2.58;;
80536;SDS011;69867;47.074;15.404;2024-02-21T00:34:36;6.50;;;2.65;;
80536;SDS011;69867;47.074;15.404;2024-02-21T00:37:01;5.32;;;2.45;;
80536;SDS011;69867;47.074;15.404;2024-02-21T00:39:26;7.60;;;2.97;;
80536;SDS011;69867;47.074;15.404;2024-02-21T00:41:52;6.13;;;2.78;;
80536;SDS011;69867;47.074;15.404;2024-02-21T00:44:17;6.28;;;2.53;;
80536;SDS011;69867;47.074;15.404;2024-02-21T00:46:43;6.63;;;2.25;;
80536;SDS011;69867;47.074;15.404;2024-02-21T00:49:08;6.28;;;2.78;;
80536;SDS011;69867;47.074;15.404;2024-02-21T00:51:33;6.57;;;2.90;;
80536;SDS011;69867;47.074;15.404;2024-02-21T00:53:59;7.22;;;3.00;;
80536;SDS011;69867;47.074;15.404;2024-02-21T00:56:24;7.88;;;2.90;;
80536;SDS011;69867;47.074;15.404;2024-02-21T00:58:49;6.53;;;2.78;;
80536;SDS011;69867;47.074;15.404;2024-02-21T01:01:20;6.13;;;2.67;;
80536;SDS011;69867;47.074;15.404;2024-02-21T01:03:46;7.78;;;2.75;;
80536;SDS011;69867;47.074;15.404;2024-02-21T01:06:12;6.15;;;2.63;;
80536;SDS011;69867;47.074;15.404;2024-02-21T01:08:37;5.50;;;2.95;;
80536;SDS011;69867;47.074;15.404;2024-02-21T01:11:02;7.32;;;2.40;;
80536;SDS011;69867;47.074;15.404;2024-02-21T01:13:28;5.10;;;2.13;;
80536;SDS011;69867;47.074;15.404;2024-02-21T01:15:53;6.13;;;2.15;;
80536;SDS011;69867;47.074;15.404;2024-02-21T01:18:19;6.55;;;2.38;;
80536;SDS011;69867;47.074;15.404;2024-02-21T01:20:44;5.95;;;2.25;;
80536;SDS011;69867;47.074;15.404;2024-02-21T01:23:09;5.30;;;2.22;;
80536;SDS011;69867;47.074;15.404;2024-02-21T01:25:35;5.20;;;2.22;;
80536;SDS011;69867;47.074;15.404;2024-02-21T01:28:00;7.45;;;2.40;;
80536;SDS011;69867;47.074;15.404;2024-02-21T01:30:26;6.50;;;2.35;;
80536;SDS011;69867;47.074;15.404;2024-02-21T01:32:51;4.40;;;2.20;;
80536;SDS011;69867;47.074;15.404;2024-02-21T01:35:16;4.50;;;1.85;;
80536;SDS011;69867;47.074;15.404;2024-02-21T01:37:42;5.40;;;1.95;;
80536;SDS011;69867;47.074;15.404;2024-02-21T01:40:07;6.15;;;2.42;;
80536;SDS011;69867;47.074;15.404;2024-02-21T01:42:33;6.88;;;2.17;;
80536;SDS011;69867;47.074;15.404;2024-02-21T01:45:03;5.55;;;1.88;;
80536;SDS011;69867;47.074;15.404;2024-02-21T01:47:28;5.45;;;2.10;;
80536;SDS011;69867;47.074;15.404;2024-02-21T01:49:54;7.95;;;2.40;;
80536;SDS011;69867;47.074;15.404;2024-02-21T01:52:20;5.10;;;2.05;;
80536;SDS011;69867;47.074;15.404;2024-02-21T01:54:45;5.53;;;2.03;;
80536;SDS011;69867;47.074;15.404;2024-02-21T01:57:11;4.07;;;2.10;;
80536;SDS011;69867;47.074;15.404;2024-02-21T01:59:37;5.18;;;1.75;;
80536;SDS011;69867;47.074;15.404;2024-02-21T02:02:03;4.82;;;2.22;;
80536;SDS011;69867;47.074;15.404;2024-02-21T02:04:28;5.95;;;2.10;;
80536;SDS011;69867;47.074;15.404;2024-02-21T02:06:54;3.95;;;2.00;;
80536;SDS011;69867;47.074;15.404;2024-02-21T02:09:19;5.20;;;1.95;;
80536;SDS011;69867;47.074;15.404;2024-02-21T02:11:45;4.13;;;1.65;;
80536;SDS011;69867;47.074;15.404;2024-02-21T02:14:10;4.35;;;2.10;;
80536;SDS011;69867;47.074;15.404;2024-02-21T02:16:35;5.10;;;1.88;;
80536;SDS011;69867;47.074;15.404;2024-02-21T02:19:01;8.13;;;2.00;;
80536;SDS011;69867;47.074;15.404;2024-02-21T02:21:29;4.30;;;1.83;;
80536;SDS011;69867;47.074;15.404;2024-02-21T02:23:57;5.82;;;2.35;;
80536;SDS011;69867;47.074;15.404;2024-02-21T02:26:23;4.82;;;2.33;;
80536;SDS011;69867;47.074;15.404;2024-02-21T02:28:49;4.82;;;2.17;;
80536;SDS011;69867;47.074;15.404;2024-02-21T02:31:14;3.88;;;2.00;;
80536;SDS011;69867;47.074;15.404;2024-02-21T02:33:39;4.80;;;2.13;;
80536;SDS011;69867;47.074;15.404;2024-02-21T02:36:07;4.32;;;1.95;;
80536;SDS011;69867;47.074;15.404;2024-02-21T02:38:33;5.65;;;1.90;;
80536;SDS011;69867;47.074;15.404;2024-02-21T02:40:58;4.63;;;2.05;;
80536;SDS011;69867;47.074;15.404;2024-02-21T02:43:23;3.67;;;2.08;;
80536;SDS011;69867;47.074;15.404;2024-02-21T02:45:49;7.57;;;2.95;;
80536;SDS011;69867;47.074;15.404;2024-02-21T02:48:14;6.22;;;2.20;;
80536;SDS011;69867;47.074;15.404;2024-02-21T02:50:39;4.80;;;2.08;;
80536;SDS011;69867;47.074;15.404;2024-02-21T02:53:05;3.83;;;1.80;;
80536;SDS011;69867;47.074;15.404;2024-02-21T02:55:30;4.50;;;2.10;;
80536;SDS011;69867;47.074;15.404;2024-02-21T02:57:55;5.05;;;2.03;;
80536;SDS011;69867;47.074;15.404;2024-02-21T03:00:21;5.60;;;2.22;;
80536;SDS011;69867;47.074;15.404;2024-02-21T03:02:46;5.68;;;2.67;;
80536;SDS011;69867;47.074;15.404;2024-02-21T03:05:14;5.43;;;1.92;;
80536;SDS011;69867;47.074;15.404;2024-02-21T03:07:44;6.10;;;2.70;;
80536;SDS011;69867;47.074;15.404;2024-02-21T03:10:10;7.75;;;2.72;;
80536;SDS011;69867;47.074;15.404;2024-02-21T03:12:36;5.20;;;2.17;;
80536;SDS011;69867;47.074;15.404;2024-02-21T03:15:02;5.65;;;2.25;;
80536;SDS011;69867;47.074;15.404;2024-02-21T03:17:27;5.35;;;1.77;;
80536;SDS011;69867;47.074;15.404;2024-02-21T03:19:53;4.65;;;2.10;;
80536;SDS011;69867;47.074;15.404;2024-02-21T03:22:18;4.80;;;2.05;;
80536;SDS011;69867;47.074;15.404;2024-02-21T03:24:44;5.07;;;2.35;;
80536;SDS011;69867;47.074;15.404;2024-02-21T03:27:09;6.28;;;2.67;;
80536;SDS011;69867;47.074;15.404;2024-02-21T03:29:35;5.32;;;2.28;;
80536;SDS011;69867;47.074;15.404;2024-02-21T03:32:00;5.80;;;2.50;;
80536;SDS011;69867;47.074;15.404;2024-02-21T03:34:25;6.10;;;2.38;;
80536;SDS011;69867;47.074;15.404;2024-02-21T03:36:51;5.07;;;2.17;;
80536;SDS011;69867;47.074;15.404;2024-02-21T03:39:16;5.63;;;2.70;;
80536;SDS011;69867;47.074;15.404;2024-02-21T03:41:41;4.35;;;2.00;;
80536;SDS011;69867;47.074;15.404;2024-02-21T03:44:07;5.78;;;2.35;;
80536;SDS011;69867;47.074;15.404;2024-02-21T03:46:32;4.35;;;1.77;;
80536;SDS011;69867;47.074;15.404;2024-02-21T03:48:57;6.43;;;2.55;;
80536;SDS011;69867;47.074;15.404;2024-02-21T03:51:23;5.47;;;2.25;;
80536;SDS011;69867;47.074;15.404;2024-02-21T03:53:48;5.53;;;2.53;;
80536;SDS011;69867;47.074;15.404;2024-02-21T03:56:13;5.22;;;2.40;;
80536;SDS011;69867;47.074;15.404;2024-02-21T03:58:39;5.38;;;2.63;;
80536;SDS011;69867;47.074;15.404;2024-02-21T04:01:04;6.43;;;2.45;;
80536;SDS011;69867;47.074;15.404;2024-02-21T04:03:30;5.53;;;2.45;;
80536;SDS011;69867;47.074;15.404;2024-02-21T04:05:56;5.68;;;2.55;;
80536;SDS011;69867;47.074;15.404;2024-02-21T04:08:22;6.05;;;2.17;;
80536;SDS011;69867;47.074;15.404;2024-02-21T04:10:47;5.80;;;2.22;;
80536;SDS011;69867;47.074;15.404;2024-02-21T04:13:13;5.38;;;2.05;;
80536;SDS011;69867;47.074;15.404;2024-02-21T04:15:38;5.45;;;2.33;;
80536;SDS011;69867;47.074;15.404;2024-02-21T04:18:04;5.50;;;2.22;;
80536;SDS011;69867;47.074;15.404;2024-02-21T04:20:29;5.30;;;2.33;;
80536;SDS011;69867;47.074;15.404;2024-02-21T04:22:55;4.85;;;2.08;;
80536;SDS011;69867;47.074;15.404;2024-02-21T04:25:20;4.35;;;2.22;;
80536;SDS011;69867;47.074;15.404;2024-02-21T04:27:46;6.28;;;2.67;;
80536;SDS011;69867;47.074;15.404;2024-02-21T04:30:11;4.25;;;2.10;;
80536;SDS011;69867;47.074;15.404;2024-02-21T04:32:37;7.28;;;2.17;;
80536;SDS011;69867;47.074;15.404;2024-02-21T04:35:02;7.10;;;2.30;;
80536;SDS011;69867;47.074;15.404;2024-02-21T04:37:28;5.78;;;2.40;;
80536;SDS011;69867;47.074;15.404;2024-02-21T04:39:53;5.93;;;2.13;;
80536;SDS011;69867;47.074;15.404;2024-02-21T04:42:18;4.78;;;2.00;;
80536;SDS011;69867;47.074;15.404;2024-02-21T04:44:44;5.05;;;1.90;;
80536;SDS011;69867;47.074;15.404;2024-02-21T04:47:09;4.43;;;1.92;;
80536;SDS011;69867;47.074;15.404;2024-02-21T04:49:35;6.05;;;1.90;;
80536;SDS011;69867;47.074;15.404;2024-02-21T04:52:00;5.72;;;1.70;;
80536;SDS011;69867;47.074;15.404;2024-02-21T04:54:26;4.88;;;1.70;;
80536;SDS011;69867;47.074;15.404;2024-02-21T04:56:51;3.65;;;1.67;;
80536;SDS011;69867;47.074;15.404;2024-02-21T04:59:17;4.53;;;1.75;;
80536;SDS011;69867;47.074;15.404;2024-02-21T05:01:42;4.40;;;1.70;;
80536;SDS011;69867;47.074;15.404;2024-02-21T05:04:08;6.53;;;1.80;;
80536;SDS011;69867;47.074;15.404;2024-02-21T05:06:40;6.15;;;2.05;;
80536;SDS011;69867;47.074;15.404;2024-02-21T05:09:08;9.32;;;2.22;;
80536;SDS011;69867;47.074;15.404;2024-02-21T05:11:34;4.20;;;1.80;;
80536;SDS011;69867;47.074;15.404;2024-02-21T05:14:00;6.47;;;2.10;;
80536;SDS011;69867;47.074;15.404;2024-02-21T05:16:25;6.18;;;1.83;;
80536;SDS011;69867;47.074;15.404;2024-02-21T05:18:51;5.53;;;2.08;;
80536;SDS011;69867;47.074;15.404;2024-02-21T05:21:16;4.30;;;1.85;;
80536;SDS011;69867;47.074;15.404;2024-02-21T05:23:42;4.03;;;1.80;;
80536;SDS011;69867;47.074;15.404;2024-02-21T05:26:07;5.05;;;1.83;;
80536;SDS011;69867;47.074;15.404;2024-02-21T05:28:32;4.25;;;1.90;;
80536;SDS011;69867;47.074;15.404;2024-02-21T05:30:58;4.50;;;2.10;;
80536;SDS011;69867;47.074;15.404;2024-02-21T05:33:23;4.35;;;1.83;;
80536;SDS011;69867;47.074;15.404;2024-02-21T05:35:49;4.82;;;2.28;;
80536;SDS011;69867;47.074;15.404;2024-02-21T05:38:15;6.35;;;2.15;;
80536;SDS011;69867;47.074;15.404;2024-02-21T05:40:40;5.53;;;2.45;;
80536;SDS011;69867;47.074;15.404;2024-02-21T05:43:07;6.53;;;2.40;;
80536;SDS011;69867;47.074;15.404;2024-02-21T05:45:33;9.55;;;2.72;;
80536;SDS011;69867;47.074;15.404;2024-02-21T05:47:58;5.00;;;2.30;;
80536;SDS011;69867;47.074;15.404;2024-02-21T05:50:23;3.90;;;2.08;;
80536;SDS011;69867;47.074;15.404;2024-02-21T05:52:54;5.68;;;2.40;;
80536;SDS011;69867;47.074;15.404;2024-02-21T05:55:19;5.32;;;2.03;;
80536;SDS011;69867;47.074;15.404;2024-02-21T05:57:44;6.40;;;2.60;;
80536;SDS011;69867;47.074;15.404;2024-02-21T06:00:10;5.53;;;2.38;;
80536;SDS011;69867;47.074;15.404;2024-02-21T06:02:36;5.10;;;2.20;;
80536;SDS011;69867;47.074;15.404;2024-02-21T06:05:01;5.57;;;2.28;;
80536;SDS011;69867;47.074;15.404;2024-02-21T06:07:26;5.07;;;2.17;;
80536;SDS011;69867;47.074;15.404;2024-02-21T06:09:52;5.93;;;2.05;;
80536;SDS011;69867;47.074;15.404;2024-02-21T06:12:17;7.90;;;2.75;;
80536;SDS011;69867;47.074;15.404;2024-02-21T06:14:42;6.90;;;2.30;;
80536;SDS011;69867;47.074;15.404;2024-02-21T06:17:08;4.72;;;2.30;;
80536;SDS011;69867;47.074;15.404;2024-02-21T06:19:33;9.23;;;2.70;;
80536;SDS011;69867;47.074;15.404;2024-02-21T06:21:58;6.82;;;2.40;;
80536;SDS011;69867;47.074;15.404;2024-02-21T06:24:24;5.07;;;1.77;;
80536;SDS011;69867;47.074;15.404;2024-02-21T06:26:49;6.97;;;2.55;;
80536;SDS011;69867;47.074;15.404;2024-02-21T06:29:14;5.55;;;2.30;;
80536;SDS011;69867;47.074;15.404;2024-02-21T06:31:40;5.25;;;2.10;;
80536;SDS011;69867;47.074;15.404;2024-02-21T06:34:05;4.57;;;2.22;;
80536;SDS011;69867;47.074;15.404;2024-02-21T06:36:31;9.57;;;3.00;;
80536;SDS011;69867;47.074;15.404;2024-02-21T06:38:56;9.13;;;3.20;;
80536;SDS011;69867;47.074;15.404;2024-02-21T06:41:21;5.63;;;2.72;;
80536;SDS011;69867;47.074;15.404;2024-02-21T06:43:47;5.53;;;2.75;;
80536;SDS011;69867;47.074;15.404;2024-02-21T06:46:22;6.00;;;2.65;;
80536;SDS011;69867;47.074;15.404;2024-02-21T06:48:48;7.85;;;2.72;;
80536;SDS011;69867;47.074;15.404;2024-02-21T06:51:14;6.95;;;2.67;;
80536;SDS011;69867;47.074;15.404;2024-02-21T06:53:39;8.52;;;2.67;;
80536;SDS011;69867;47.074;15.404;2024-02-21T06:56:04;8.30;;;2.53;;
80536;SDS011;69867;47.074;15.404;2024-02-21T06:58:30;7.15;;;2.85;;
80536;SDS011;69867;47.074;15.404;2024-02-21T07:00:55;7.28;;;2.70;;
80536;SDS011;69867;47.074;15.404;2024-02-21T07:03:20;10.55;;;2.75;;
80536;SDS011;69867;47.074;15.404;2024-02-21T07:05:45;6.93;;;2.25;;
80536;SDS011;69867;47.074;15.404;2024-02-21T07:08:11;7.50;;;2.80;;
80536;SDS011;69867;47.074;15.404;2024-02-21T07:10:36;5.47;;;2.13;;
80536;SDS011;69867;47.074;15.404;2024-02-21T07:13:01;10.85;;;2.95;;
80536;SDS011;69867;47.074;15.404;2024-02-21T07:15:27;7.15;;;2.40;;
80536;SDS011;69867;47.074;15.404;2024-02-21T07:17:52;8.20;;;2.95;;
80536;SDS011;69867;47.074;15.404;2024-02-21T07:20:18;9.75;;;2.95;;
80536;SDS011;69867;47.074;15.404;2024-02-21T07:22:43;5.97;;;2.28;;
80536;SDS011;69867;47.074;15.404;2024-02-21T07:25:08;10.02;;;3.42;;
80536;SDS011;69867;47.074;15.404;2024-02-21T07:27:34;5.45;;;2.47;;
80536;SDS011;69867;47.074;15.404;2024-02-21T07:29:59;5.78;;;2.38;;
80536;SDS011;69867;47.074;15.404;2024-02-21T07:32:25;6.63;;;2.55;;
80536;SDS011;69867;47.074;15.404;2024-02-21T07:34:50;8.18;;;2.28;;
80536;SDS011;69867;47.074;15.404;2024-02-21T07:37:15;8.05;;;2.05;;
80536;SDS011;69867;47.074;15.404;2024-02-21T07:39:41;5.30;;;2.22;;
80536;SDS011;69867;47.074;15.404;2024-02-21T07:42:06;5.50;;;2.20;;
80536;SDS011;69867;47.074;15.404;2024-02-21T07:44:31;6.72;;;2.40;;
80536;SDS011;69867;47.074;15.404;2024-02-21T07:46:57;6.38;;;2.20;;
80536;SDS011;69867;47.074;15.404;2024-02-21T07:49:22;7.15;;;2.33;;
80536;SDS011;69867;47.074;15.404;2024-02-21T07:51:48;4.63;;;2.03;;
80536;SDS011;69867;47.074;15.404;2024-02-21T07:54:13;5.47;;;1.90;;
80536;SDS011;69867;47.074;15.404;2024-02-21T07:56:38;5.80;;;1.90;;
80536;SDS011;69867;47.074;15.404;2024-02-21T07:59:04;7.93;;;3.20;;
80536;SDS011;69867;47.074;15.404;2024-02-21T08:01:29;6.10;;;3.28;;
80536;SDS011;69867;47.074;15.404;2024-02-21T08:03:54;7.18;;;2.47;;
80536;SDS011;69867;47.074;15.404;2024-02-21T08:06:19;5.13;;;2.50;;
80536;SDS011;69867;47.074;15.404;2024-02-21T08:08:45;6.18;;;2.33;;
80536;SDS011;69867;47.074;15.404;2024-02-21T08:11:10;5.05;;;2.22;;
80536;SDS011;69867;47.074;15.404;2024-02-21T08:13:35;4.88;;;2.60;;
80536;SDS011;69867;47.074;15.404;2024-02-21T08:16:01;5.65;;;1.77;;
80536;SDS011;69867;47.074;15.404;2024-02-21T08:18:26;6.60;;;2.00;;
80536;SDS011;69867;47.074;15.404;2024-02-21T08:20:52;6.18;;;2.50;;
80536;SDS011;69867;47.074;15.404;2024-02-21T08:23:18;9.02;;;2.85;;
80536;SDS011;69867;47.074;15.404;2024-02-21T08:25:44;7.40;;;2.35;;
80536;SDS011;69867;47.074;15.404;2024-02-21T08:28:09;7.50;;;3.03;;
80536;SDS011;69867;47.074;15.404;2024-02-21T08:30:36;4.85;;;2.17;;
80536;SDS011;69867;47.074;15.404;2024-02-21T08:33:01;6.90;;;2.38;;
80536;SDS011;69867;47.074;15.404;2024-02-21T08:35:27;7.47;;;2.30;;
80536;SDS011;69867;47.074;15.404;2024-02-21T08:37:52;6.03;;;2.10;;
80536;SDS011;69867;47.074;15.404;2024-02-21T08:40:17;8.43;;;2.63;;
80536;SDS011;69867;47.074;15.404;2024-02-21T08:42:43;4.30;;;2.17;;
80536;SDS011;69867;47.074;15.404;2024-02-21T08:45:09;7.93;;;2.83;;
80536;SDS011;69867;47.074;15.404;2024-02-21T08:47:35;5.70;;;2.20;;
80536;SDS011;69867;47.074;15.404;2024-02-21T08:50:00;6.22;;;2.80;;
80536;SDS011;69867;47.074;15.404;2024-02-21T08:52:26;5.95;;;2.08;;
80536;SDS011;69867;47.074;15.404;2024-02-21T08:54:51;5.30;;;2.42;;
80536;SDS011;69867;47.074;15.404;2024-02-21T08:57:17;5.32;;;2.10;;
80536;SDS011;69867;47.074;15.404;2024-02-21T08:59:42;5.47;;;2.10;;
80536;SDS011;69867;47.074;15.404;2024-02-21T09:02:07;5.07;;;1.67;;
80536;SDS011;69867;47.074;15.404;2024-02-21T09:04:33;4.55;;;1.80;;
80536;SDS011;69867;47.074;15.404;2024-02-21T09:06:58;6.85;;;2.30;;
80536;SDS011;69867;47.074;15.404;2024-02-21T09:09:24;6.88;;;2.35;;
80536;SDS011;69867;47.074;15.404;2024-02-21T09:11:49;4.20;;;1.88;;
80536;SDS011;69867;47.074;15.404;2024-02-21T09:14:15;5.93;;;2.08;;
80536;SDS011;69867;47.074;15.404;2024-02-21T09:16:40;6.80;;;2.10;;
80536;SDS011;69867;47.074;15.404;2024-02-21T09:19:05;4.15;;;1.55;;
80536;SDS011;69867;47.074;15.404;2024-02-21T09:21:31;4.05;;;2.05;;
80536;SDS011;69867;47.074;15.404;2024-02-21T09:23:56;6.18;;;1.98;;
80536;SDS011;69867;47.074;15.404;2024-02-21T09:26:21;5.85;;;2.63;;
80536;SDS011;69867;47.074;15.404;2024-02-21T09:28:47;6.05;;;1.83;;
80536;SDS011;69867;47.074;15.404;2024-02-21T09:31:12;7.75;;;2.42;;
80536;SDS011;69867;47.074;15.404;2024-02-21T09:33:37;6.15;;;2.30;;
80536;SDS011;69867;47.074;15.404;2024-02-21T09:36:03;8.98;;;2.38;;
80536;SDS011;69867;47.074;15.404;2024-02-21T09:38:29;4.85;;;2.03;;
80536;SDS011;69867;47.074;15.404;2024-02-21T09:40:59;6.25;;;2.30;;
80536;SDS011;69867;47.074;15.404;2024-02-21T09:43:29;7.28;;;2.50;;
80536;SDS011;69867;47.074;15.404;2024-02-21T09:45:55;6.70;;;2.03;;
80536;SDS011;69867;47.074;15.404;2024-02-21T09:51:07;8.02;;;2.20;;
80536;SDS011;69867;47.074;15.404;2024-02-21T09:53:35;5.50;;;1.60;;
80536;SDS011;69867;47.074;15.404;2024-02-21T09:56:03;5.43;;;2.17;;
80536;SDS011;69867;47.074;15.404;2024-02-21T09:58:30;12.43;;;2.67;;
80536;SDS011;69867;47.074;15.404;2024-02-21T10:00:55;10.50;;;2.17;;
80536;SDS011;69867;47.074;15.404;2024-02-21T10:03:21;6.03;;;2.50;;
80536;SDS011;69867;47.074;15.404;2024-02-21T10:05:47;8.52;;;2.90;;
80536;SDS011;69867;47.074;15.404;2024-02-21T10:08:14;5.82;;;2.30;;
80536;SDS011;69867;47.074;15.404;2024-02-21T10:10:43;7.22;;;2.47;;
80536;SDS011;69867;47.074;15.404;2024-02-21T10:13:09;5.63;;;2.20;;
80536;SDS011;69867;47.074;15.404;2024-02-21T10:15:36;6.32;;;2.13;;
80536;SDS011;69867;47.074;15.404;2024-02-21T10:18:01;5.50;;;2.15;;
80536;SDS011;69867;47.074;15.404;2024-02-21T10:20:27;6.32;;;2.72;;
80536;SDS011;69867;47.074;15.404;2024-02-21T10:23:02;10.57;;;2.67;;
80536;SDS011;69867;47.074;15.404;2024-02-21T10:25:28;8.32;;;2.10;;
80536;SDS011;69867;47.074;15.404;2024-02-21T10:27:54;8.13;;;2.17;;
80536;SDS011;69867;47.074;15.404;2024-02-21T10:30:19;5.78;;;2.10;;
80536;SDS011;69867;47.074;15.404;2024-02-21T10:32:51;6.53;;;1.70;;
80536;SDS011;69867;47.074;15.404;2024-02-21T10:37:52;6.55;;;2.78;;
80536;SDS011;69867;47.074;15.404;2024-02-21T10:40:17;6.43;;;2.05;;
80536;SDS011;69867;47.074;15.404;2024-02-21T10:42:43;10.07;;;2.45;;
80536;SDS011;69867;47.074;15.404;2024-02-21T10:45:09;4.47;;;2.25;;
80536;SDS011;69867;47.074;15.404;2024-02-21T10:47:34;4.95;;;2.05;;
80536;SDS011;69867;47.074;15.404;2024-02-21T10:50:02;9.15;;;3.33;;
80536;SDS011;69867;47.074;15.404;2024-02-21T10:55:26;5.45;;;1.90;;
80536;SDS011;69867;47.074;15.404;2024-02-21T11:00:34;5.35;;;2.00;;
80536;SDS011;69867;47.074;15.404;2024-02-21T11:03:01;4.15;;;2.17;;
80536;SDS011;69867;47.074;15.404;2024-02-21T11:05:27;7.22;;;2.00;;
80536;SDS011;69867;47.074;15.404;2024-02-21T11:07:53;6.85;;;2.63;;
80536;SDS011;69867;47.074;15.404;2024-02-21T11:10:25;7.22;;;1.83;;
80536;SDS011;69867;47.074;15.404;2024-02-21T11:13:09;7.05;;;2.13;;
80536;SDS011;69867;47.074;15.404;2024-02-21T11:15:35;5.47;;;1.88;;
80536;SDS011;69867;47.074;15.404;2024-02-21T11:18:01;4.45;;;1.92;;
80536;SDS011;69867;47.074;15.404;2024-02-21T11:20:33;6.22;;;1.92;;
80536;SDS011;69867;47.074;15.404;2024-02-21T11:22:59;5.25;;;1.92;;
80536;SDS011;69867;47.074;15.404;2024-02-21T11:25:25;4.88;;;1.83;;
80536;SDS011;69867;47.074;15.404;2024-02-21T11:27:50;5.85;;;1.77;;
80536;SDS011;69867;47.074;15.404;2024-02-21T11:33:05;5.18;;;1.40;;
80536;SDS011;69867;47.074;15.404;2024-02-21T11:35:34;3.67;;;1.40;;
80536;SDS011;69867;47.074;15.404;2024-02-21T11:40:38;3.90;;;1.45;;
80536;SDS011;69867;47.074;15.404;2024-02-21T11:43:03;5.05;;;1.65;;
80536;SDS011;69867;47.074;15.404;2024-02-21T11:45:29;6.85;;;1.52;;
80536;SDS011;69867;47.074;15.404;2024-02-21T11:47:54;3.42;;;1.42;;
80536;SDS011;69867;47.074;15.404;2024-02-21T11:50:23;3.67;;;1.30;;
80536;SDS011;69867;47.074;15.404;2024-02-21T11:52:49;4.65;;;1.92;;
80536;SDS011;69867;47.074;15.404;2024-02-21T11:55:14;3.25;;;1.38;;
80536;SDS011;69867;47.074;15.404;2024-02-21T11:57:39;4.32;;;1.38;;
80536;SDS011;69867;47.074;15.404;2024-02-21T12:00:20;5.50;;;2.45;;
80536;SDS011;69867;47.074;15.404;2024-02-21T12:02:46;3.13;;;1.33;;
80536;SDS011;69867;47.074;15.404;2024-02-21T12:05:12;3.47;;;1.20;;
80536;SDS011;69867;47.074;15.404;2024-02-21T12:07:38;3.80;;;1.50;;
80536;SDS011;69867;47.074;15.404;2024-02-21T12:10:03;4.78;;;1.40;;
80536;SDS011;69867;47.074;15.404;2024-02-21T12:12:33;3.97;;;1.40;;
80536;SDS011;69867;47.074;15.404;2024-02-21T12:14:58;3.92;;;1.38;;
80536;SDS011;69867;47.074;15.404;2024-02-21T12:17:23;5.13;;;1.20;;
80536;SDS011;69867;47.074;15.404;2024-02-21T12:19:50;3.67;;;1.23;;
80536;SDS011;69867;47.074;15.404;2024-02-21T12:22:18;5.03;;;1.50;;
80536;SDS011;69867;47.074;15.404;2024-02-21T12:24:44;5.28;;;1.42;;
80536;SDS011;69867;47.074;15.404;2024-02-21T12:27:09;5.13;;;1.30;;
80536;SDS011;69867;47.074;15.404;2024-02-21T12:29:34;4.20;;;1.23;;
80536;SDS011;69867;47.074;15.404;2024-02-21T12:32:00;7.00;;;1.30;;
80536;SDS011;69867;47.074;15.404;2024-02-21T12:34:25;3.92;;;1.02;;
80536;SDS011;69867;47.074;15.404;2024-02-21T12:36:50;5.00;;;1.30;;
80536;SDS011;69867;47.074;15.404;2024-02-21T12:39:16;4.05;;;1.50;;
80536;SDS011;69867;47.074;15.404;2024-02-21T12:41:42;3.47;;;1.23;;
80536;SDS011;69867;47.074;15.404;2024-02-21T12:44:07;3.10;;;1.08;;
80536;SDS011;69867;47.074;15.404;2024-02-21T12:46:33;4.65;;;1.38;;
80536;SDS011;69867;47.074;15.404;2024-02-21T12:48:59;4.18;;;1.50;;
80536;SDS011;69867;47.074;15.404;2024-02-21T12:51:25;3.83;;;1.40;;
80536;SDS011;69867;47.074;15.404;2024-02-21T12:53:51;2.92;;;1.05;;
80536;SDS011;69867;47.074;15.404;2024-02-21T12:56:16;4.05;;;1.60;;
80536;SDS011;69867;47.074;15.404;2024-02-21T12:58:41;3.88;;;1.27;;
80536;SDS011;69867;47.074;15.404;2024-02-21T13:01:07;3.72;;;1.67;;
80536;SDS011;69867;47.074;15.404;2024-02-21T13:03:32;3.08;;;1.23;;
80536;SDS011;69867;47.074;15.404;2024-02-21T13:05:58;3.88;;;1.40;;
80536;SDS011;69867;47.074;15.404;2024-02-21T13:08:23;2.80;;;1.10;;
80536;SDS011;69867;47.074;15.404;2024-02-21T13:10:49;3.25;;;1.08;;
80536;SDS011;69867;47.074;15.404;2024-02-21T13:13:14;3.65;;;0.90;;
80536;SDS011;69867;47.074;15.404;2024-02-21T13:15:40;6.35;;;1.35;;
80536;SDS011;69867;47.074;15.404;2024-02-21T13:18:05;3.83;;;0.80;;
80536;SDS011;69867;47.074;15.404;2024-02-21T13:20:30;3.20;;;0.90;;
80536;SDS011;69867;47.074;15.404;2024-02-21T13:22:56;2.63;;;1.10;;
80536;SDS011;69867;47.074;15.404;2024-02-21T13:25:21;2.45;;;0.85;;
80536;SDS011;69867;47.074;15.404;2024-02-21T13:27:47;2.63;;;0.80;;
80536;SDS011;69867;47.074;15.404;2024-02-21T13:30:13;5.13;;;0.90;;
80536;SDS011;69867;47.074;15.404;2024-02-21T13:32:38;3.80;;;0.80;;
80536;SDS011;69867;47.074;15.404;2024-02-21T13:35:04;3.40;;;0.90;;
80536;SDS011;69867;47.074;15.404;2024-02-21T13:37:29;3.92;;;1.33;;
80536;SDS011;69867;47.074;15.404;2024-02-21T13:39:54;2.25;;;0.80;;
80536;SDS011;69867;47.074;15.404;2024-02-21T13:42:20;2.63;;;0.80;;
80536;SDS011;69867;47.074;15.404;2024-02-21T13:44:45;1.98;;;0.70;;
80536;SDS011;69867;47.074;15.404;2024-02-21T13:47:14;2.95;;;1.10;;
80536;SDS011;69867;47.074;15.404;2024-02-21T13:49:40;3.88;;;1.33;;
80536;SDS011;69867;47.074;15.404;2024-02-21T13:52:05;2.95;;;0.93;;
80536;SDS011;69867;47.074;15.404;2024-02-21T13:54:31;2.47;;;0.80;;
80536;SDS011;69867;47.074;15.404;2024-02-21T13:56:56;4.55;;;2.13;;
80536;SDS011;69867;47.074;15.404;2024-02-21T13:59:22;8.82;;;4.15;;
80536;SDS011;69867;47.074;15.404;2024-02-21T14:01:47;7.07;;;4.00;;
80536;SDS011;69867;47.074;15.404;2024-02-21T14:04:12;4.65;;;1.27;;
80536;SDS011;69867;47.074;15.404;2024-02-21T14:06:38;3.78;;;1.20;;
80536;SDS011;69867;47.074;15.404;2024-02-21T14:09:03;6.18;;;1.00;;
80536;SDS011;69867;47.074;15.404;2024-02-21T14:11:28;3.05;;;0.93;;
80536;SDS011;69867;47.074;15.404;2024-02-21T14:13:54;4.57;;;1.10;;
80536;SDS011;69867;47.074;15.404;2024-02-21T14:16:19;3.00;;;0.98;;
80536;SDS011;69867;47.074;15.404;2024-02-21T14:18:44;2.17;;;0.63;;
80536;SDS011;69867;47.074;15.404;2024-02-21T14:21:10;2.95;;;0.90;;
80536;SDS011;69867;47.074;15.404;2024-02-21T14:23:39;3.28;;;1.05;;
80536;SDS011;69867;47.074;15.404;2024-02-21T14:26:04;2.95;;;0.70;;
80536;SDS011;69867;47.074;15.404;2024-02-21T14:28:30;2.47;;;1.10;;
80536;SDS011;69867;47.074;15.404;2024-02-21T14:30:58;2.80;;;1.10;;
80536;SDS011;69867;47.074;15.404;2024-02-21T14:33:23;4.07;;;0.95;;
80536;SDS011;69867;47.074;15.404;2024-02-21T14:35:49;2.83;;;1.08;;
80536;SDS011;69867;47.074;15.404;2024-02-21T14:38:14;4.65;;;1.15;;
80536;SDS011;69867;47.074;15.404;2024-02-21T14:40:39;3.60;;;1.20;;